TimeCDT,TemperatureF,Dew PointF,Humidity,Sea Level PressureIn,VisibilityMPH,Wind Direction,Wind SpeedMPH,Gust SpeedMPH,PrecipitationIn,Events,Conditions,WindDirDegrees,DateUTC
12:15 AM,69.8,53.6,56,29.77,10.0,SSW,13.8,18.4,N/A,,Overcast,200,2013-10-11 05:15:00
12:35 AM,69.8,53.6,56,29.78,10.0,SSW,16.1,23.0,N/A,,Overcast,210,2013-10-11 05:35:00
12:55 AM,68.0,53.6,60,29.78,10.0,SSW,12.7,17.3,N/A,,Mostly Cloudy,200,2013-10-11 05:55:00
1:15 AM,68.0,53.6,60,29.79,10.0,SSW,12.7,-,N/A,,Scattered Clouds,210,2013-10-11 06:15:00
1:35 AM,66.2,53.6,64,29.79,10.0,SSW,9.2,-,N/A,,Mostly Cloudy,210,2013-10-11 06:35:00
1:55 AM,64.4,53.6,68,29.79,10.0,SW,9.2,-,N/A,,Mostly Cloudy,230,2013-10-11 06:55:00
2:15 AM,62.6,53.6,72,29.80,10.0,West,5.8,-,N/A,,Mostly Cloudy,270,2013-10-11 07:15:00
2:35 AM,60.8,53.6,77,29.80,10.0,WSW,6.9,-,N/A,,Scattered Clouds,250,2013-10-11 07:35:00
2:55 AM,59.0,53.6,82,29.80,10.0,SW,5.8,-,N/A,,Clear,230,2013-10-11 07:55:00
3:15 AM,57.2,46.4,67,29.80,10.0,SW,8.1,-,N/A,,Clear,220,2013-10-11 08:15:00
3:35 AM,55.4,42.8,63,29.80,10.0,SSW,6.9,-,N/A,,Clear,210,2013-10-11 08:35:00
3:55 AM,53.6,41.0,62,29.79,10.0,SSW,9.2,-,N/A,,Clear,200,2013-10-11 08:55:00
4:15 AM,53.6,41.0,62,29.78,10.0,SSW,8.1,-,N/A,,Clear,200,2013-10-11 09:15:00
4:35 AM,51.8,37.4,58,29.78,10.0,SSW,9.2,-,N/A,,Clear,210,2013-10-11 09:35:00
4:55 AM,55.4,37.4,51,29.79,10.0,SSW,9.2,-,N/A,,Clear,210,2013-10-11 09:55:00
5:15 AM,53.6,37.4,54,29.79,10.0,SSW,10.4,-,N/A,,Clear,210,2013-10-11 10:15:00
5:35 AM,53.6,35.6,51,29.79,10.0,SSW,11.5,-,N/A,,Clear,210,2013-10-11 10:35:00
5:55 AM,51.8,33.8,50,29.79,10.0,SSW,11.5,-,N/A,,Clear,210,2013-10-11 10:55:00
6:15 AM,51.8,32.0,47,29.80,10.0,SSW,12.7,-,N/A,,Clear,210,2013-10-11 11:15:00
6:35 AM,51.8,32.0,47,29.81,10.0,SSW,12.7,-,N/A,,Clear,210,2013-10-11 11:35:00
6:55 AM,51.8,32.0,47,29.82,10.0,SW,11.5,-,N/A,,Clear,230,2013-10-11 11:55:00
7:15 AM,50.0,30.2,47,29.82,10.0,SW,9.2,-,N/A,,Clear,230,2013-10-11 12:15:00
7:35 AM,50.0,30.2,47,29.81,10.0,SW,10.4,-,N/A,,Clear,220,2013-10-11 12:35:00
7:55 AM,50.0,30.2,47,29.82,10.0,SW,12.7,-,N/A,,Clear,220,2013-10-11 12:55:00
8:15 AM,50.0,30.2,47,29.82,10.0,SSW,9.2,-,N/A,,Clear,210,2013-10-11 13:15:00
8:35 AM,50.0,30.2,47,29.84,10.0,South,9.2,-,N/A,,Clear,190,2013-10-11 13:35:00
8:55 AM,51.8,30.2,44,29.84,10.0,SSW,10.4,-,N/A,,Clear,210,2013-10-11 13:55:00
9:15 AM,55.4,30.2,38,29.84,10.0,SW,13.8,-,N/A,,Clear,220,2013-10-11 14:15:00
9:35 AM,59.0,28.4,31,29.84,10.0,SW,16.1,20.7,N/A,,Clear,220,2013-10-11 14:35:00
9:55 AM,60.8,28.4,29,29.84,10.0,SW,19.6,-,N/A,,Clear,230,2013-10-11 14:55:00
10:15 AM,60.8,28.4,29,29.84,10.0,SW,20.7,26.5,N/A,,Clear,220,2013-10-11 15:15:00
10:35 AM,62.6,28.4,27,29.84,10.0,SSW,19.6,24.2,N/A,,Clear,210,2013-10-11 15:35:00
10:55 AM,64.4,28.4,26,29.84,10.0,SW,18.4,24.2,N/A,,Clear,220,2013-10-11 15:55:00
11:15 AM,64.4,28.4,26,29.84,10.0,SW,16.1,24.2,N/A,,Clear,230,2013-10-11 16:15:00
11:35 AM,66.2,28.4,24,29.84,10.0,WSW,17.3,-,N/A,,Clear,240,2013-10-11 16:35:00
11:55 AM,68.0,28.4,23,29.84,10.0,WSW,17.3,24.2,N/A,,Clear,250,2013-10-11 16:55:00
12:15 PM,68.0,30.2,24,29.84,10.0,WSW,15.0,21.9,N/A,,Clear,240,2013-10-11 17:15:00
12:35 PM,68.0,28.4,23,29.83,10.0,WSW,16.1,27.6,N/A,,Clear,240,2013-10-11 17:35:00
12:55 PM,69.8,28.4,21,29.82,10.0,SW,17.3,26.5,N/A,,Clear,220,2013-10-11 17:55:00
1:15 PM,71.6,30.2,22,29.82,10.0,WSW,15.0,23.0,N/A,,Clear,250,2013-10-11 18:15:00
1:35 PM,73.4,28.4,19,29.81,10.0,WSW,16.1,23.0,N/A,,Clear,250,2013-10-11 18:35:00
1:55 PM,73.4,26.6,18,29.81,10.0,West,17.3,24.2,N/A,,Clear,260,2013-10-11 18:55:00
2:15 PM,77.0,28.4,17,29.80,10.0,WSW,15.0,19.6,N/A,,Clear,250,2013-10-11 19:15:00
2:35 PM,77.0,28.4,17,29.79,10.0,SW,12.7,20.7,N/A,,Clear,230,2013-10-11 19:35:00
2:55 PM,77.0,26.6,16,29.78,10.0,WSW,13.8,18.4,N/A,,Clear,250,2013-10-11 19:55:00
3:15 PM,78.8,26.6,15,29.78,10.0,SW,15.0,23.0,N/A,,Clear,230,2013-10-11 20:15:00
3:35 PM,78.8,26.6,15,29.77,10.0,WSW,16.1,21.9,N/A,,Clear,240,2013-10-11 20:35:00
3:55 PM,78.8,26.6,15,29.78,10.0,West,13.8,20.7,N/A,,Clear,260,2013-10-11 20:55:00
4:15 PM,78.8,26.6,15,29.78,10.0,SW,12.7,19.6,N/A,,Clear,230,2013-10-11 21:15:00
4:35 PM,78.8,26.6,15,29.78,10.0,WSW,5.8,17.3,N/A,,Clear,250,2013-10-11 21:35:00
4:55 PM,78.8,26.6,15,29.78,10.0,West,8.1,-,N/A,,Clear,270,2013-10-11 21:55:00
5:15 PM,78.8,24.8,14,29.78,10.0,West,8.1,-,N/A,,Clear,270,2013-10-11 22:15:00
5:35 PM,78.8,24.8,14,29.79,10.0,WNW,9.2,-,N/A,,Clear,290,2013-10-11 22:35:00
5:55 PM,78.8,26.6,15,29.79,10.0,WNW,5.8,-,N/A,,Clear,300,2013-10-11 22:55:00
6:15 PM,78.8,26.6,15,29.80,10.0,WNW,5.8,-,N/A,,Clear,290,2013-10-11 23:15:00
6:35 PM,77.0,28.4,17,29.80,10.0,NNW,4.6,-,N/A,,Clear,340,2013-10-11 23:35:00
6:55 PM,73.4,32.0,22,29.81,10.0,North,4.6,-,N/A,,Clear,350,2013-10-11 23:55:00
7:15 PM,69.8,32.0,25,29.82,10.0,Calm,Calm,-,N/A,,Clear,0,2013-10-12 00:15:00
7:35 PM,69.8,32.0,25,29.83,10.0,Calm,Calm,-,N/A,,Clear,0,2013-10-12 00:35:00
7:55 PM,68.0,32.0,26,29.84,10.0,ESE,4.6,-,N/A,,Clear,110,2013-10-12 00:55:00
8:15 PM,68.0,32.0,26,29.85,10.0,East,3.5,-,N/A,,Clear,100,2013-10-12 01:15:00
8:35 PM,64.4,32.0,30,29.87,10.0,East,4.6,-,N/A,,Clear,100,2013-10-12 01:35:00
8:55 PM,62.6,32.0,32,29.87,10.0,ENE,3.5,-,N/A,,Clear,60,2013-10-12 01:55:00
9:15 PM,60.8,33.8,36,29.88,10.0,ENE,3.5,-,N/A,,Clear,70,2013-10-12 02:15:00
9:35 PM,60.8,32.0,34,29.88,10.0,ESE,3.5,-,N/A,,Clear,110,2013-10-12 02:35:00
9:55 PM,62.6,32.0,32,29.89,10.0,SSE,3.5,-,N/A,,Clear,150,2013-10-12 02:55:00
10:15 PM,55.4,33.8,44,29.90,10.0,North,5.8,-,N/A,,Clear,10,2013-10-12 03:15:00
10:35 PM,51.8,33.8,50,29.91,10.0,NE,8.1,-,N/A,,Clear,50,2013-10-12 03:35:00
10:55 PM,53.6,33.8,47,29.91,10.0,East,3.5,-,N/A,,Clear,90,2013-10-12 03:55:00
11:15 PM,53.6,33.8,47,29.92,10.0,East,3.5,-,N/A,,Clear,90,2013-10-12 04:15:00
11:35 PM,53.6,33.8,47,29.93,10.0,Calm,Calm,-,N/A,,Clear,0,2013-10-12 04:35:00
11:55 PM,51.8,35.6,54,29.94,10.0,NE,5.8,-,N/A,,Clear,50,2013-10-12 04:55:00